Wednesday, October 18, 2017, 6:02 PM EDT
Back to Local

KABE, Lehigh Valley International Airport

Location: Allentown, PA, United States Lat: 40.65
Local Time: 6:02 PM EDT (22:02 GMT) Lon: -75.45
Time Zone: US/Eastern Elev: 393 ft

Show me the last for .
Show Decoded

2017-10-18 17:51 METAR KABE 182151Z 22006KT 10SM CLR 19/07 A3026 RMK AO2 SLP247 T01890072 =
2017-10-18 16:51 METAR KABE 182051Z 22008KT 10SM CLR 21/08 A3026 RMK AO2 SLP247 T02110078 56012 =
2017-10-18 15:51 METAR KABE 181951Z 23009KT 10SM CLR 22/08 A3027 RMK AO2 SLP250 T02220078 =
2017-10-18 14:51 METAR KABE 181851Z 23007KT 10SM CLR 22/08 A3028 RMK AO2 SLP254 T02220083 =
2017-10-18 13:51 METAR KABE 181751Z 22005KT 10SM CLR 22/08 A3029 RMK AO2 SLP259 T02170078 10217
                 20050 58018 =
2017-10-18 12:51 METAR KABE 181651Z 24004KT 10SM CLR 21/07 A3032 RMK AO2 SLP269 T02060072 =
2017-10-18 11:51 METAR KABE 181551Z 22006KT 10SM CLR 18/07 A3034 RMK AO2 SLP275 T01830067 =
2017-10-18 10:51 METAR KABE 181451Z 27006KT 10SM CLR 16/06 A3035 RMK AO2 SLP277 T01560061 50002 =
2017-10-18 09:51 METAR KABE 181351Z 24007KT 10SM CLR 13/06 A3035 RMK AO2 SLP279 T01280056 =
2017-10-18 08:51 METAR KABE 181251Z 24006KT 10SM CLR 09/04 A3035 RMK AO2 SLP280 T00890044 =
2017-10-18 07:51 METAR KABE 181151Z 25004KT 10SM CLR 05/03 A3034 RMK AO2 SLP277 T00500028 10056
                 20033 51017 =
2017-10-18 06:51 METAR KABE 181051Z 00000KT 10SM CLR 04/02 A3033 RMK AO2 SLP273 T00440017 =
2017-10-18 05:51 METAR KABE 180951Z 00000KT 10SM CLR 04/02 A3031 RMK AO2 SLP266 T00440022 =
2017-10-18 04:51 METAR KABE 180851Z 00000KT 10SM CLR 05/03 A3029 RMK AO2 SLP259 T00500028 55004 =
2017-10-18 03:51 METAR KABE 180751Z 30003KT 10SM CLR 04/02 A3029 RMK AO2 SLP258 T00390022 =
2017-10-18 02:51 METAR KABE 180651Z 00000KT 10SM CLR 06/03 A3030 RMK AO2 SLP261 T00560028 =
2017-10-18 01:51 METAR KABE 180551Z 32003KT 10SM CLR 04/02 A3030 RMK AO2 SLP263 T00440022 10111
                 20044 51001 =
2017-10-18 00:51 METAR KABE 180451Z 00000KT 10SM CLR 06/03 A3030 RMK AO2 SLP263 T00610028
                 401610033 =
2017-10-17 23:51 METAR KABE 180351Z 00000KT 10SM CLR 06/03 A3030 RMK AO2 SLP263 T00560028 =
2017-10-17 22:51 METAR KABE 180251Z 28003KT 10SM CLR 07/02 A3030 RMK AO2 SLP262 T00670022 53008 =
2017-10-17 21:51 METAR KABE 180151Z 28004KT 10SM CLR 09/02 A3029 RMK AO2 SLP258 T00890017 =
2017-10-17 20:51 METAR KABE 180051Z 22003KT 10SM CLR 08/02 A3028 RMK AO2 SLP256 T00830017 =
2017-10-17 19:51 METAR KABE 172351Z 21005KT 10SM CLR 09/02 A3028 RMK AO2 SLP255 T00940017 10161
                 20089 53009 =
2017-10-17 18:51 METAR KABE 172251Z 22006KT 10SM CLR 10/01 A3026 RMK AO2 SLP251 T01000011 =

Support USWX by starting your Amazon purchase here.